createdAt,value
2022-09-01T00:00:32.339Z,97.8
2022-09-01T00:01:41.461Z,98.3
2022-09-01T00:02:51.578Z,97.8
2022-09-01T00:04:01.699Z,98
2022-09-01T00:06:21.949Z,98.3
2022-09-01T00:07:32.049Z,98.6
2022-09-01T00:08:42.165Z,98.7
2022-09-01T00:09:52.292Z,98.8
2022-09-01T00:11:02.412Z,98.9
2022-09-01T00:13:22.904Z,98.7
2022-09-01T00:14:32.754Z,97.7
2022-09-01T00:15:43.146Z,97.5
2022-09-01T00:16:52.023Z,97.6
2022-09-01T00:18:02.135Z,98.1
2022-09-01T00:19:12.522Z,98.8
2022-09-01T00:20:22.364Z,99.3
2022-09-01T00:21:32.742Z,99.5
2022-09-01T00:22:42.593Z,99.7
2022-09-01T00:23:52.994Z,99.9
2022-09-01T00:25:02.841Z,99.7
2022-09-01T00:27:23.335Z,98.7
2022-09-01T00:28:33.600Z,98.7
2022-09-01T00:29:42.472Z,98.5
2022-09-01T00:30:52.846Z,98.8
2022-09-01T00:32:02.975Z,99.2
2022-09-01T00:33:12.815Z,99.3
2022-09-01T00:34:23.197Z,99.3
2022-09-01T00:35:33.051Z,98.5
2022-09-01T00:36:43.181Z,97.9
2022-09-01T00:37:53.287Z,98.2
2022-09-01T00:39:03.407Z,98.7
2022-09-01T00:40:13.529Z,98.7
2022-09-01T00:41:22.680Z,98.6
2022-09-01T00:42:31.817Z,98.8
2022-09-01T00:43:41.921Z,98.5
2022-09-01T00:44:52.043Z,99
2022-09-01T00:46:02.422Z,98.8
2022-09-01T00:48:22.388Z,99.3
2022-09-01T00:49:32.776Z,98.8
2022-09-01T00:50:42.626Z,98.5
2022-09-01T00:51:52.754Z,98.8
2022-09-01T00:53:02.862Z,98.8
2022-09-01T00:54:12.986Z,98.7
2022-09-01T00:55:23.107Z,98.8
2022-09-01T00:56:33.213Z,98.9
2022-09-01T00:57:42.617Z,99.3
2022-09-01T00:58:52.465Z,99.7
2022-09-01T01:00:02.847Z,99.8
2022-09-01T01:01:12.703Z,99.7
2022-09-01T01:02:23.086Z,100
2022-09-01T01:03:32.948Z,99.3
2022-09-01T01:04:43.051Z,98.6
2022-09-01T01:05:53.172Z,98.3
2022-09-01T01:07:03.302Z,98.4
2022-09-01T01:08:13.403Z,98.4
2022-09-01T01:09:23.528Z,98.4
2022-09-01T01:10:33.902Z,98.6
2022-09-01T01:11:43.756Z,98.5
2022-09-01T01:12:52.892Z,98.4
2022-09-01T01:14:03.019Z,98.6
2022-09-01T01:15:13.143Z,98.6
2022-09-01T01:16:23.263Z,99
2022-09-01T01:17:33.369Z,98.7
2022-09-01T01:18:43.480Z,99.3
2022-09-01T01:19:53.611Z,99.8
2022-09-01T01:21:03.714Z,99.6
2022-09-01T01:23:23.963Z,99.8
2022-09-01T01:24:34.341Z,98.7
2022-09-01T01:25:44.195Z,98.1
2022-09-01T01:26:54.303Z,98.1
2022-09-01T01:28:03.442Z,98.3
2022-09-01T01:30:23.949Z,98.8
2022-09-01T01:31:34.071Z,98.9
2022-09-01T01:32:43.913Z,99.1
2022-09-01T01:33:54.293Z,99.1
2022-09-01T01:35:04.138Z,99.1
2022-09-01T01:36:14.267Z,99.4
2022-09-01T01:37:24.393Z,99.7
2022-09-01T01:38:34.509Z,99.5
2022-09-01T01:39:44.626Z,99.1
2022-09-01T01:40:54.736Z,98.7
2022-09-01T01:42:05.121Z,98.3
2022-09-01T01:43:14.253Z,98.3
2022-09-01T01:44:24.111Z,98.5
2022-09-01T01:45:34.231Z,99.1
2022-09-01T01:46:44.341Z,99.2
2022-09-01T01:47:54.722Z,99.5
2022-09-01T01:49:04.575Z,99.5
2022-09-01T01:50:14.687Z,99.1
2022-09-01T01:51:24.814Z,99
2022-09-01T01:52:34.929Z,99.2
2022-09-01T01:53:45.039Z,99.7
2022-09-01T01:54:55.165Z,99.9
2022-09-01T01:56:05.276Z,99.8
2022-09-01T01:57:15.407Z,99.3
2022-09-01T01:58:24.799Z,99.1
2022-09-01T01:59:34.655Z,99
2022-09-01T02:00:44.764Z,98.2
2022-09-01T02:01:54.885Z,98.1
2022-09-01T02:03:05.012Z,98.6
2022-09-01T02:05:25.237Z,98.9
2022-09-01T02:06:35.363Z,98.5
2022-09-01T02:07:45.471Z,98.4
2022-09-01T02:08:55.598Z,98.3
2022-09-01T02:10:05.705Z,98.3
2022-09-01T02:11:16.094Z,98.5
2022-09-01T02:12:25.959Z,98.9
2022-09-01T02:13:35.085Z,99.1
2022-09-01T02:14:45.203Z,99.3
2022-09-01T02:15:55.309Z,99.8
2022-09-01T02:17:05.440Z,100
2022-09-01T02:18:15.554Z,100
2022-09-01T02:19:25.679Z,100
2022-09-01T02:20:35.795Z,100
2022-09-01T02:21:45.900Z,99.7
2022-09-01T02:22:56.026Z,99.1
2022-09-01T02:24:06.152Z,98.6
2022-09-01T02:26:26.382Z,98.4
2022-09-01T02:27:36.756Z,98.7
2022-09-01T02:28:45.638Z,99.6
2022-09-01T02:29:55.747Z,99.1
2022-09-01T02:31:05.873Z,98.8
2022-09-01T02:33:26.360Z,98.7
2022-09-01T02:34:36.225Z,98.7
2022-09-01T02:35:46.328Z,99.2
2022-09-01T02:36:56.453Z,100
2022-09-01T02:38:06.563Z,99.2
2022-09-01T02:39:16.685Z,98.5
2022-09-01T02:40:26.808Z,98.3
2022-09-01T02:41:37.190Z,98
2022-09-01T02:42:47.048Z,98.5
2022-09-01T02:43:56.170Z,99
2022-09-01T02:45:06.556Z,99.3
2022-09-01T02:46:16.407Z,99.6
2022-09-01T02:47:26.532Z,100
2022-09-01T02:48:36.639Z,100
2022-09-01T02:49:46.000Z,100
2022-09-01T02:50:57.151Z,99.8
2022-09-01T02:52:06.994Z,99.3
2022-09-01T02:54:27.229Z,99
2022-09-01T02:55:37.355Z,99
2022-09-01T02:56:47.481Z,99.1
2022-09-01T02:57:57.591Z,99.4
2022-09-01T02:59:06.727Z,99.4
2022-09-01T03:00:16.845Z,99.6
2022-09-01T03:01:26.966Z,99.7
2022-09-01T03:02:37.074Z,100
2022-09-01T03:03:47.465Z,100
2022-09-01T03:04:57.311Z,99.7
2022-09-01T03:06:07.693Z,99.5
2022-09-01T03:07:17.546Z,99.5
2022-09-01T03:08:27.673Z,100
2022-09-01T03:09:37.782Z,100
2022-09-01T03:10:47.900Z,100
2022-09-01T03:11:58.014Z,100
2022-09-01T03:13:08.139Z,100
2022-09-01T03:14:17.281Z,99.6
2022-09-01T03:15:27.652Z,99.3
2022-09-01T03:16:37.505Z,99.1
2022-09-01T03:17:47.631Z,99.1
2022-09-01T03:18:57.740Z,99.2
2022-09-01T03:20:07.854Z,99.4
2022-09-01T03:21:17.979Z,99.4
2022-09-01T03:22:28.101Z,99.4
2022-09-01T03:23:38.225Z,99.7
2022-09-01T03:24:48.336Z,99.8
2022-09-01T03:25:58.721Z,99.7
2022-09-01T03:27:08.566Z,99.8
2022-09-01T03:28:18.683Z,100
2022-09-01T03:29:27.825Z,100
2022-09-01T03:30:38.208Z,100
2022-09-01T03:31:48.053Z,100
2022-09-01T03:32:58.440Z,99.9
2022-09-01T03:34:08.286Z,99.6
2022-09-01T03:35:18.414Z,99.9
2022-09-01T03:37:38.918Z,99.9
2022-09-01T03:38:49.026Z,99.9
2022-09-01T03:39:59.145Z,99.7
2022-09-01T03:41:09.270Z,99.5
2022-09-01T03:42:19.117Z,99.6
2022-09-01T03:43:29.240Z,99.6
2022-09-01T03:44:38.359Z,99.6
2022-09-01T03:45:48.491Z,99.5
2022-09-01T03:46:58.606Z,99.3
2022-09-01T03:50:29.226Z,99.5
2022-09-01T03:51:39.075Z,99.5
2022-09-01T03:52:48.215Z,99.5
2022-09-01T03:53:57.611Z,99.8
2022-09-01T03:55:07.465Z,99.7
2022-09-01T03:56:16.604Z,99.8
2022-09-01T03:57:26.728Z,100
2022-09-01T03:58:36.838Z,100
2022-09-01T03:59:47.245Z,100
2022-09-01T04:00:57.081Z,99.7
2022-09-01T04:02:07.190Z,99.6
2022-09-01T04:03:17.320Z,99.7
2022-09-01T04:04:27.431Z,99.9
2022-09-01T04:05:36.843Z,100
2022-09-01T04:06:45.706Z,100
2022-09-01T04:07:56.092Z,99.9
2022-09-01T04:09:05.944Z,99.9
2022-09-01T04:10:16.072Z,100
2022-09-01T04:11:26.185Z,99.7
2022-09-01T04:12:36.298Z,99.5
2022-09-01T04:13:46.428Z,99.8
2022-09-01T04:14:56.528Z,100
2022-09-01T04:16:06.650Z,99.8
2022-09-01T04:18:26.900Z,99.1
2022-09-01T04:19:37.268Z,98.9
2022-09-01T04:20:47.385Z,99
2022-09-01T04:21:56.263Z,99
2022-09-01T04:23:06.375Z,99.2
2022-09-01T04:24:16.497Z,99.3
2022-09-01T04:25:26.617Z,99.5
2022-09-01T04:26:36.728Z,99.4
2022-09-01T04:27:46.850Z,99.5
2022-09-01T04:28:56.976Z,99.8
2022-09-01T04:30:07.084Z,100
2022-09-01T04:31:17.202Z,100
2022-09-01T04:32:27.310Z,100
2022-09-01T04:33:37.707Z,99.8
2022-09-01T04:34:47.561Z,99.8
2022-09-01T04:35:57.666Z,99.8
2022-09-01T04:37:06.805Z,99.8
2022-09-01T04:39:27.037Z,100
2022-09-01T04:40:37.165Z,99.8
2022-09-01T04:41:47.280Z,100
2022-09-01T04:42:57.388Z,100
2022-09-01T04:44:07.504Z,100
2022-09-01T04:45:17.632Z,99.7
2022-09-01T04:46:27.757Z,99.4
2022-09-01T04:47:38.129Z,99.2
2022-09-01T04:48:47.983Z,99.4
2022-09-01T04:49:58.112Z,99.3
2022-09-01T04:51:08.220Z,99.6
2022-09-01T04:52:17.351Z,100
2022-09-01T04:53:27.481Z,99.9
2022-09-01T04:54:37.588Z,99.3
2022-09-01T04:55:47.710Z,99.2
2022-09-01T04:56:57.820Z,99.2
2022-09-01T04:58:07.952Z,99.5
2022-09-01T05:00:28.184Z,99.7
2022-09-01T05:01:38.305Z,99.6
2022-09-01T05:02:48.419Z,99.9
2022-09-01T05:03:58.540Z,100
2022-09-01T05:05:08.645Z,100
2022-09-01T05:07:28.878Z,99.9
2022-09-01T05:08:38.016Z,99.9
2022-09-01T05:09:48.139Z,99.8
2022-09-01T05:10:58.262Z,99.8
2022-09-01T05:12:08.632Z,99.7
2022-09-01T05:13:18.492Z,99.4
2022-09-01T05:14:28.874Z,99.3
2022-09-01T05:15:38.727Z,99.3
2022-09-01T05:16:48.845Z,99
2022-09-01T05:17:59.220Z,99.3
2022-09-01T05:19:09.345Z,99.4
2022-09-01T05:20:19.191Z,99.5
2022-09-01T05:21:29.309Z,99.9
2022-09-01T05:22:39.439Z,100
2022-09-01T05:23:48.000Z,99.5
2022-09-01T05:24:58.695Z,99.5
2022-09-01T05:26:08.799Z,99.5
2022-09-01T05:28:29.038Z,99.2
2022-09-01T05:29:39.156Z,99.4
2022-09-01T05:30:49.280Z,99.1
2022-09-01T05:31:59.386Z,99
2022-09-01T05:33:09.770Z,99
2022-09-01T05:35:30.009Z,98.6
2022-09-01T05:36:39.857Z,98.3
2022-09-01T05:37:49.000Z,98
2022-09-01T05:38:59.111Z,98.1
2022-09-01T05:40:09.238Z,97.8
2022-09-01T05:41:19.343Z,96.9
2022-09-01T05:42:29.739Z,96.7
2022-09-01T05:43:39.851Z,97.1
2022-09-01T05:44:49.707Z,97
2022-09-01T05:46:00.089Z,95.9
2022-09-01T05:47:10.213Z,95.8
2022-09-01T05:48:20.063Z,94
2022-09-01T05:49:30.172Z,93.7
2022-09-01T05:50:40.299Z,93.3
2022-09-01T05:51:50.400Z,95.7
2022-09-01T05:53:00.523Z,95.2
2022-09-01T05:54:09.927Z,94.2
2022-09-01T05:55:19.768Z,93.2
2022-09-01T05:56:29.901Z,92.9
2022-09-01T05:57:40.283Z,93.7
2022-09-01T05:58:50.139Z,94.9
2022-09-01T06:00:00.247Z,92.3
2022-09-01T06:01:10.375Z,91.6
2022-09-01T06:03:30.861Z,91.1
2022-09-01T06:04:40.728Z,89.7
2022-09-01T06:05:50.834Z,92.8
2022-09-01T06:07:00.957Z,94.4
2022-09-01T06:08:11.070Z,91
2022-09-01T06:10:30.316Z,91.7
2022-09-01T06:11:40.442Z,92.9
2022-09-01T06:12:50.556Z,89.5
2022-09-01T06:14:00.673Z,87.3
2022-09-01T06:15:11.053Z,89.7
2022-09-01T06:16:20.908Z,91.2
2022-09-01T06:17:31.286Z,91.2
2022-09-01T06:18:41.156Z,89.3
2022-09-01T06:19:51.264Z,90.7
2022-09-01T06:21:01.379Z,90.5
2022-09-01T06:22:11.508Z,88.2
2022-09-01T06:23:21.883Z,88.8
2022-09-01T06:24:31.019Z,86.7
2022-09-01T06:25:41.126Z,86.9
2022-09-01T06:26:51.256Z,87.5
2022-09-01T06:28:01.098Z,86.6
2022-09-01T06:29:11.223Z,85.8
2022-09-01T06:30:21.334Z,85.1
2022-09-01T06:31:31.717Z,88.1
2022-09-01T06:32:41.578Z,85.6
2022-09-01T06:33:51.687Z,83.5
2022-09-01T06:35:01.808Z,84
2022-09-01T06:36:11.919Z,83.9
2022-09-01T06:37:22.045Z,83.9
2022-09-01T06:38:32.429Z,83.4
2022-09-01T06:39:41.289Z,82.9
2022-09-01T06:40:51.672Z,82.9
2022-09-01T06:42:01.789Z,83.6
2022-09-01T06:43:11.655Z,84.4
2022-09-01T06:45:31.891Z,83.3
2022-09-01T06:46:42.007Z,84.4
2022-09-01T06:47:52.124Z,82
2022-09-01T06:49:02.230Z,81.9
2022-09-01T06:50:12.617Z,82.2
2022-09-01T06:51:22.734Z,82
2022-09-01T06:52:32.859Z,80.5
2022-09-01T06:53:42.965Z,80.8
2022-09-01T06:56:01.943Z,83.5
2022-09-01T06:57:12.053Z,81.2
2022-09-01T06:58:22.173Z,81.2
2022-09-01T06:59:32.573Z,83.1
2022-09-01T07:00:42.408Z,80.8
2022-09-01T07:01:52.526Z,80.5
2022-09-01T07:03:02.918Z,82.6
2022-09-01T07:04:12.764Z,78.8
2022-09-01T07:05:22.886Z,79.5
2022-09-01T07:06:32.991Z,79.8
2022-09-01T07:07:43.110Z,79.3
2022-09-01T07:08:53.226Z,80.2
2022-09-01T07:10:02.651Z,78.6
2022-09-01T07:11:12.486Z,78.8
2022-09-01T07:12:22.612Z,78.6
2022-09-01T07:13:32.714Z,79
2022-09-01T07:14:42.829Z,78.2
2022-09-01T07:15:52.956Z,78.7
2022-09-01T07:17:03.368Z,79.6
2022-09-01T07:18:13.181Z,76
2022-09-01T07:19:23.311Z,77
2022-09-01T07:20:33.428Z,78.2
2022-09-01T07:21:43.819Z,77.1
2022-09-01T07:22:53.657Z,78.1
2022-09-01T07:24:03.775Z,78.1
2022-09-01T07:25:12.912Z,75.3
2022-09-01T07:26:23.300Z,78.4
2022-09-01T07:27:33.153Z,76.6
2022-09-01T07:28:43.256Z,78.7
2022-09-01T07:31:03.502Z,77.6
2022-09-01T07:32:13.612Z,76.7
2022-09-01T07:34:33.849Z,77.9
2022-09-01T07:35:44.244Z,76.3
2022-09-01T07:36:54.081Z,76.8
2022-09-01T07:38:04.202Z,76.2
2022-09-01T07:39:14.315Z,72.3
2022-09-01T07:40:23.452Z,73.4
2022-09-01T07:41:33.576Z,73.5
2022-09-01T07:42:43.971Z,72.1
2022-09-01T07:43:53.803Z,72.7
2022-09-01T07:45:03.926Z,75.6
2022-09-01T07:46:14.328Z,71.6
2022-09-01T07:48:34.285Z,66.1
2022-09-01T07:49:43.434Z,64.8
2022-09-01T07:50:52.568Z,66.2
2022-09-01T07:52:02.674Z,67.3
2022-09-01T07:53:12.790Z,68.4
2022-09-01T07:54:22.912Z,67.7
2022-09-01T07:55:33.035Z,69
2022-09-01T07:56:43.430Z,67.9
2022-09-01T07:57:53.545Z,70.4
2022-09-01T07:59:03.398Z,68.9
2022-09-01T08:00:13.497Z,69.2
2022-09-01T08:01:23.633Z,68.3
2022-09-01T08:02:33.050Z,69.3
2022-09-01T08:03:42.886Z,69
2022-09-01T08:04:52.019Z,65.8
2022-09-01T08:06:02.139Z,67.3
2022-09-01T08:07:12.261Z,67.6
2022-09-01T08:09:32.493Z,66
2022-09-01T08:10:42.609Z,66.4
2022-09-01T08:11:52.719Z,64.3
2022-09-01T08:13:03.119Z,66.4
2022-09-01T08:14:13.261Z,64.4
2022-09-01T08:15:23.073Z,66.6
2022-09-01T08:16:33.202Z,66.9
2022-09-01T08:17:43.326Z,66.6
2022-09-01T08:18:53.432Z,62.8
2022-09-01T08:20:02.566Z,64.1
2022-09-01T08:21:12.689Z,63.1
2022-09-01T08:22:22.802Z,64.1
2022-09-01T08:23:32.919Z,63.7
2022-09-01T08:24:43.037Z,64.8
2022-09-01T08:25:53.167Z,64.4
2022-09-01T08:27:03.269Z,64.8
2022-09-01T08:28:13.390Z,63.9
2022-09-01T08:29:23.509Z,64.5
2022-09-01T08:30:33.633Z,63.7
2022-09-01T08:31:44.022Z,63.8
2022-09-01T08:32:53.865Z,62.1
2022-09-01T08:34:03.985Z,60.8
2022-09-01T08:35:13.391Z,59.4
2022-09-01T08:36:23.230Z,61.7
2022-09-01T08:37:33.350Z,61.5
2022-09-01T08:38:43.475Z,63.4
2022-09-01T08:39:53.598Z,62.4
2022-09-01T08:41:03.707Z,62.7
2022-09-01T08:42:13.830Z,60.9
2022-09-01T08:43:23.951Z,60.6
2022-09-01T08:44:34.052Z,58.9
2022-09-01T08:45:44.176Z,57.9
2022-09-01T08:46:54.295Z,59.6
2022-09-01T08:48:04.679Z,60
2022-09-01T08:50:24.645Z,58.5
2022-09-01T08:51:33.780Z,59.2
2022-09-01T08:52:43.891Z,59.4
2022-09-01T08:53:54.013Z,62
2022-09-01T08:55:04.139Z,61.1
2022-09-01T08:56:14.528Z,62
2022-09-01T08:58:34.478Z,64.7
2022-09-01T08:59:44.606Z,65.6
2022-09-01T09:00:54.993Z,66.1
2022-09-01T09:02:04.834Z,67.6
2022-09-01T09:03:14.956Z,67.7
2022-09-01T09:04:25.082Z,67.4
2022-09-01T09:05:35.192Z,67.6
2022-09-01T09:06:44.329Z,68.8
2022-09-01T09:07:54.439Z,68.1
2022-09-01T09:09:04.565Z,69
2022-09-01T09:10:14.674Z,69.9
2022-09-01T09:12:34.918Z,68.6
2022-09-01T09:13:44.055Z,68.7
2022-09-01T09:14:53.194Z,67
2022-09-01T09:16:03.302Z,68.2
2022-09-01T09:17:13.431Z,68.4
2022-09-01T09:18:23.540Z,68.2
2022-09-01T09:19:33.671Z,68.3
2022-09-01T09:20:44.051Z,67
2022-09-01T09:21:54.179Z,67.4
2022-09-01T09:23:04.018Z,67.9
2022-09-01T09:24:14.413Z,68.6
2022-09-01T09:26:34.376Z,66.4
2022-09-01T09:27:44.480Z,63.6
2022-09-01T09:28:54.611Z,64.2
2022-09-01T09:30:04.019Z,63.5
2022-09-01T09:31:13.848Z,62.4
2022-09-01T09:32:23.973Z,60.3
2022-09-01T09:33:34.086Z,61.4
2022-09-01T09:34:44.485Z,61.5
2022-09-01T09:35:54.340Z,61.8
2022-09-01T09:37:04.448Z,59.6
2022-09-01T09:38:14.576Z,58.2
2022-09-01T09:40:34.106Z,58.9
2022-09-01T09:41:42.969Z,57.3
2022-09-01T09:42:53.092Z,56.4
2022-09-01T09:44:03.212Z,59.7
2022-09-01T09:45:13.318Z,58.8
2022-09-01T09:46:23.452Z,59.9
2022-09-01T09:47:33.559Z,61.3
2022-09-01T09:48:43.684Z,61.5
2022-09-01T09:49:53.791Z,62.8
2022-09-01T09:51:03.203Z,63.8
2022-09-01T09:52:12.333Z,61.3
2022-09-01T09:53:22.185Z,61.1
2022-09-01T09:54:32.581Z,62.5
2022-09-01T09:55:42.686Z,62.1
2022-09-01T09:56:52.805Z,61
2022-09-01T09:58:02.929Z,62.3
2022-09-01T09:59:13.072Z,62.4
2022-09-01T10:01:33.019Z,60.9
2022-09-01T10:03:53.514Z,58.7
2022-09-01T10:05:03.638Z,58.3
2022-09-01T10:06:12.787Z,59.7
2022-09-01T10:07:21.648Z,60.6
2022-09-01T10:08:31.754Z,64
2022-09-01T10:09:42.142Z,59.3
2022-09-01T10:10:51.996Z,61
2022-09-01T10:13:12.499Z,59.8
2022-09-01T10:15:32.738Z,60.4
2022-09-01T10:16:42.851Z,60.1
2022-09-01T10:17:52.967Z,61.2
2022-09-01T10:19:02.826Z,60.2
2022-09-01T10:20:12.949Z,58.3
2022-09-01T10:22:32.209Z,56.9
2022-09-01T10:23:41.347Z,56.6
2022-09-01T10:24:50.480Z,55.1
2022-09-01T10:26:00.592Z,55.2
2022-09-01T10:27:10.717Z,56.9
2022-09-01T10:29:31.215Z,54.1
2022-09-01T10:30:41.071Z,52.3
2022-09-01T10:31:51.196Z,52.6
2022-09-01T10:33:01.312Z,53
2022-09-01T10:34:11.419Z,54.2
2022-09-01T10:35:21.548Z,51.5
2022-09-01T10:36:31.659Z,51
2022-09-01T10:37:41.786Z,51.1
2022-09-01T10:38:51.901Z,54.7
2022-09-01T10:40:01.028Z,55
2022-09-01T10:41:11.426Z,55.7
2022-09-01T10:43:31.390Z,55.1
2022-09-01T10:44:41.512Z,55.5
2022-09-01T10:45:51.894Z,53.6
2022-09-01T10:47:01.735Z,52.8
2022-09-01T10:48:11.859Z,52
2022-09-01T10:50:32.352Z,54.3
2022-09-01T10:51:42.210Z,52.8
2022-09-01T10:52:52.588Z,52.5
2022-09-01T10:56:22.666Z,52.4
2022-09-01T10:57:33.062Z,51.6
2022-09-01T10:58:41.915Z,51.9
2022-09-01T10:59:52.033Z,53.3
2022-09-01T11:01:02.154Z,52.1
2022-09-01T11:02:12.278Z,53.2
2022-09-01T11:03:22.383Z,51.1
2022-09-01T11:04:32.783Z,52.2
2022-09-01T11:05:42.618Z,51.8
2022-09-01T11:06:52.741Z,51.1
2022-09-01T11:08:03.142Z,52
2022-09-01T11:09:12.973Z,53
2022-09-01T11:10:23.102Z,50.2
2022-09-01T11:11:33.204Z,52
2022-09-01T11:12:43.325Z,51.3
2022-09-01T11:13:52.743Z,51.1
2022-09-01T11:15:02.868Z,52
2022-09-01T11:16:12.980Z,52.7
2022-09-01T11:17:22.813Z,51.8
2022-09-01T11:18:32.938Z,52.5
2022-09-01T11:19:42.080Z,52.3
2022-09-01T11:20:51.215Z,51.2
2022-09-01T11:22:01.322Z,53.6
2022-09-01T11:23:11.442Z,51.5
2022-09-01T11:24:21.561Z,51.7
2022-09-01T11:25:31.685Z,52.6
2022-09-01T11:26:41.807Z,54.6
2022-09-01T11:27:51.909Z,53.5
2022-09-01T11:29:02.032Z,52.9
2022-09-01T11:30:12.433Z,54
2022-09-01T11:31:22.265Z,54.6
2022-09-01T11:32:31.419Z,53.6
2022-09-01T11:33:40.834Z,53.4
2022-09-01T11:34:50.661Z,54.3
2022-09-01T11:36:00.791Z,55.1
2022-09-01T11:37:11.182Z,56.3
2022-09-01T11:38:21.010Z,56.6
2022-09-01T11:39:31.138Z,56.6
2022-09-01T11:40:41.249Z,57
2022-09-01T11:41:51.375Z,55.8
2022-09-01T11:43:01.481Z,54.9
2022-09-01T11:44:11.608Z,55.6
2022-09-01T11:45:20.753Z,53.7
2022-09-01T11:46:30.872Z,52.7
2022-09-01T11:47:41.267Z,52.8
2022-09-01T11:48:51.107Z,52.8
2022-09-01T11:50:01.217Z,53.3
2022-09-01T11:51:11.344Z,55.6
2022-09-01T11:52:21.452Z,51.8
2022-09-01T11:53:31.576Z,52.3
2022-09-01T11:54:41.701Z,55.5
2022-09-01T11:55:51.818Z,54.9
2022-09-01T11:57:02.213Z,52.8
2022-09-01T11:58:12.050Z,51.3
2022-09-01T11:59:22.155Z,52.7
2022-09-01T12:00:31.290Z,54.9
2022-09-01T12:01:41.415Z,52.8
2022-09-01T12:02:51.525Z,50.6
2022-09-01T12:04:01.925Z,51.5
2022-09-01T12:05:11.761Z,55.4
2022-09-01T12:07:31.995Z,52.3
2022-09-01T12:08:42.120Z,52.8
2022-09-01T12:09:52.243Z,50.8
2022-09-01T12:11:02.353Z,48.4
2022-09-01T12:12:12.476Z,50.6
2022-09-01T12:14:32.983Z,50.2
2022-09-01T12:15:42.119Z,51.5
2022-09-01T12:16:51.953Z,51.8
2022-09-01T12:18:02.354Z,51.7
2022-09-01T12:19:12.194Z,50.9
2022-09-01T12:20:22.320Z,50.4
2022-09-01T12:22:42.548Z,48
2022-09-01T12:23:51.686Z,47.8
2022-09-01T12:25:00.818Z,49.3
2022-09-01T12:26:10.945Z,47.5
2022-09-01T12:27:21.067Z,50.4
2022-09-01T12:28:31.171Z,47.8
2022-09-01T12:29:41.301Z,48
2022-09-01T12:30:51.420Z,47.6
2022-09-01T12:32:01.521Z,51.4
2022-09-01T12:33:11.653Z,48.1
2022-09-01T12:34:21.763Z,46
2022-09-01T12:35:31.892Z,48.1
2022-09-01T12:36:41.028Z,48.2
2022-09-01T12:37:50.166Z,50.4
2022-09-01T12:39:00.284Z,49.4
2022-09-01T12:40:10.395Z,48.9
2022-09-01T12:41:20.502Z,49.1
2022-09-01T12:42:30.626Z,49.6
2022-09-01T12:43:40.755Z,49.5
2022-09-01T12:46:01.257Z,53.1
2022-09-01T12:47:11.383Z,56.3
2022-09-01T12:48:21.215Z,54.3
2022-09-01T12:49:31.323Z,53.9
2022-09-01T12:50:41.449Z,53
2022-09-01T12:51:51.575Z,54.5
2022-09-01T12:53:00.703Z,54.9
2022-09-01T12:54:10.810Z,51.7
2022-09-01T12:56:31.060Z,49.8
2022-09-01T12:57:40.206Z,51.8
2022-09-01T12:58:49.323Z,51.2
2022-09-01T12:59:59.446Z,50.4
2022-09-01T13:01:09.571Z,50.9
2022-09-01T13:02:19.695Z,49.4
2022-09-01T13:03:29.811Z,51.9
2022-09-01T13:04:39.911Z,51.7
2022-09-01T13:05:50.037Z,51.5
2022-09-01T13:07:00.147Z,53.5
2022-09-01T13:08:10.550Z,54.2
2022-09-01T13:10:30.507Z,54.2
2022-09-01T13:11:40.916Z,55.4
2022-09-01T13:12:50.740Z,55.5
2022-09-01T13:13:59.878Z,54.7
2022-09-01T13:15:10.001Z,53.1
2022-09-01T13:17:30.512Z,52.9
2022-09-01T13:18:39.379Z,52.3
2022-09-01T13:19:48.000Z,52.5
2022-09-01T13:20:58.911Z,51
2022-09-01T13:22:08.746Z,52.2
2022-09-01T13:23:18.869Z,49.1
2022-09-01T13:24:29.261Z,50.8
2022-09-01T13:25:39.101Z,50.6
2022-09-01T13:26:49.220Z,50.3
2022-09-01T13:27:59.326Z,52
2022-09-01T13:29:09.452Z,52.2
2022-09-01T13:30:19.575Z,54.3
2022-09-01T13:31:28.710Z,54.6
2022-09-01T13:32:37.842Z,53.9
2022-09-01T13:33:47.968Z,54.9
2022-09-01T13:34:58.365Z,54.3
2022-09-01T13:36:08.204Z,56.2
2022-09-01T13:37:18.327Z,55.9
2022-09-01T13:38:28.436Z,57.6
2022-09-01T13:39:38.839Z,56.3
2022-09-01T13:40:48.668Z,55.9
2022-09-01T13:41:58.795Z,53.8
2022-09-01T13:43:08.914Z,55.7
2022-09-01T13:44:18.065Z,53
2022-09-01T13:45:27.000Z,53
2022-09-01T13:46:37.317Z,53.1
2022-09-01T13:47:47.706Z,50.7
2022-09-01T13:48:57.533Z,52.1
2022-09-01T13:50:07.660Z,47.7
2022-09-01T13:51:17.784Z,50.3
2022-09-01T13:52:27.890Z,51.5
2022-09-01T13:53:38.013Z,53.9
2022-09-01T13:54:48.132Z,51.9
2022-09-01T13:55:58.241Z,52
2022-09-01T13:57:08.361Z,50.8
2022-09-01T13:58:18.489Z,51.3
2022-09-01T13:59:28.886Z,50.7
2022-09-01T14:00:37.741Z,50.8
2022-09-01T14:01:47.853Z,46.7
2022-09-01T14:02:57.974Z,48.4
2022-09-01T14:04:08.084Z,47.1
2022-09-01T14:06:28.325Z,49.1
2022-09-01T14:07:38.449Z,45.6
2022-09-01T14:08:48.556Z,46.6
2022-09-01T14:09:58.686Z,47.8
2022-09-01T14:11:08.803Z,46.7
2022-09-01T14:12:18.924Z,45.6
2022-09-01T14:13:29.037Z,46.6
2022-09-01T14:14:39.144Z,47.4
2022-09-01T14:15:48.279Z,47.5
2022-09-01T14:16:58.402Z,50.6
2022-09-01T14:18:08.529Z,46.5
2022-09-01T14:20:29.038Z,46.7
2022-09-01T14:21:38.872Z,48
2022-09-01T14:22:48.995Z,48.3
2022-09-01T14:23:59.104Z,48.1
2022-09-01T14:25:09.228Z,48
2022-09-01T14:26:19.343Z,46.6
2022-09-01T14:27:29.467Z,44.2
2022-09-01T14:28:39.576Z,44.5
2022-09-01T14:29:49.703Z,42.3
2022-09-01T14:32:08.963Z,40.2
2022-09-01T14:33:19.076Z,42.2
2022-09-01T14:34:29.183Z,39
2022-09-01T14:35:39.301Z,41.8
2022-09-01T14:36:49.424Z,40.5
2022-09-01T14:37:59.823Z,36.8
2022-09-01T14:39:09.656Z,38
2022-09-01T14:41:29.892Z,37.3
2022-09-01T14:42:40.015Z,35.4
2022-09-01T14:43:50.131Z,34.8
2022-09-01T14:45:00.241Z,35
2022-09-01T14:46:09.379Z,33.1
2022-09-01T14:47:19.503Z,35.9
2022-09-01T14:48:29.612Z,33.9
2022-09-01T14:49:39.739Z,34.9
2022-09-01T14:50:49.852Z,36.4
2022-09-01T14:52:00.245Z,35.4
2022-09-01T14:53:10.083Z,35.5
2022-09-01T14:54:20.208Z,34.9
2022-09-01T14:55:30.315Z,36.7
2022-09-01T14:56:40.443Z,37.5
2022-09-01T14:57:50.549Z,37.1
2022-09-01T14:59:00.675Z,37.1
2022-09-01T15:00:10.786Z,36
2022-09-01T15:01:19.917Z,38.1
2022-09-01T15:02:30.038Z,37.4
2022-09-01T15:06:00.390Z,37.4
2022-09-01T15:07:10.501Z,38.5
2022-09-01T15:09:31.018Z,36
2022-09-01T15:10:39.882Z,34.6
2022-09-01T15:11:49.015Z,33.7
2022-09-01T15:12:59.413Z,34.2
2022-09-01T15:14:09.267Z,37.1
2022-09-01T15:15:19.369Z,35.4
2022-09-01T15:16:29.488Z,33.8
2022-09-01T15:17:39.604Z,32.5
2022-09-01T15:18:49.730Z,33.1
2022-09-01T15:19:59.838Z,32.9
2022-09-01T15:21:09.964Z,32.7
2022-09-01T15:23:30.197Z,32.5
2022-09-01T15:24:40.304Z,31.8
2022-09-01T15:25:50.433Z,31.7
2022-09-01T15:26:59.557Z,31.7
2022-09-01T15:28:09.690Z,31.3
2022-09-01T15:30:29.917Z,30.8
2022-09-01T15:31:39.068Z,30.4
2022-09-01T15:32:48.203Z,30.6
2022-09-01T15:33:58.587Z,30.1
2022-09-01T15:35:08.439Z,32
2022-09-01T15:36:18.553Z,31.2
2022-09-01T15:37:28.664Z,31.3
2022-09-01T15:38:38.786Z,30.4
2022-09-01T15:39:47.918Z,31.4
2022-09-01T15:40:58.041Z,31
2022-09-01T15:42:08.165Z,29.7
2022-09-01T15:43:18.272Z,31.5
2022-09-01T15:44:27.426Z,32.8
2022-09-01T15:45:36.544Z,31.2
2022-09-01T15:46:46.950Z,30.8
2022-09-01T15:47:57.063Z,31.6
2022-09-01T15:49:06.914Z,31.1
2022-09-01T15:51:27.152Z,31.4
2022-09-01T15:52:37.279Z,31.1
2022-09-01T15:53:47.381Z,31.8
2022-09-01T15:54:57.510Z,31.5
2022-09-01T15:56:07.624Z,32.3
2022-09-01T15:57:17.738Z,31.3
2022-09-01T15:58:27.869Z,35.9
2022-09-01T15:59:37.975Z,39.1
2022-09-01T16:00:47.103Z,38.1
2022-09-01T16:01:57.227Z,36.6
2022-09-01T16:03:07.346Z,35.9
2022-09-01T16:04:17.456Z,38.2
2022-09-01T16:05:27.579Z,41.9
2022-09-01T16:06:37.703Z,43.6
2022-09-01T16:07:47.813Z,45.8
2022-09-01T16:08:57.935Z,46.7
2022-09-01T16:10:07.075Z,47.4
2022-09-01T16:11:16.220Z,46.8
2022-09-01T16:12:26.324Z,44.3
2022-09-01T16:13:36.450Z,42.5
2022-09-01T16:14:46.561Z,41.9
2022-09-01T16:15:56.684Z,42.7
2022-09-01T16:17:06.794Z,43.5
2022-09-01T16:18:16.921Z,44.1
2022-09-01T16:19:27.030Z,45.2
2022-09-01T16:20:37.159Z,47
2022-09-01T16:21:47.281Z,47.4
2022-09-01T16:22:57.395Z,47.8
2022-09-01T16:24:07.498Z,47.1
2022-09-01T16:27:37.854Z,50.9
2022-09-01T16:28:47.005Z,49.9
2022-09-01T16:29:56.130Z,50.4
2022-09-01T16:31:06.252Z,50.8
2022-09-01T16:32:16.377Z,51.4
2022-09-01T16:33:26.493Z,51.7
2022-09-01T16:35:46.721Z,52.5
2022-09-01T16:36:57.100Z,53.4
2022-09-01T16:38:06.950Z,53
2022-09-01T16:39:17.075Z,53.6
2022-09-01T16:40:27.191Z,54.7
2022-09-01T16:41:37.584Z,54.4
2022-09-01T16:42:47.425Z,55.5
2022-09-01T16:43:57.808Z,56.6
2022-09-01T16:45:18.472Z,55.6
2022-09-01T16:47:26.912Z,56.5
2022-09-01T16:48:36.065Z,56
2022-09-01T16:49:45.186Z,56.1
2022-09-01T16:50:55.571Z,56.8
2022-09-01T16:52:05.418Z,56.2